createdAt,value
2022-11-04T00:02:58.424Z,99462.66
2022-11-04T00:08:19.019Z,99463.50
2022-11-04T00:13:22.179Z,99463.50
2022-11-04T00:18:24.245Z,99462.84
2022-11-04T00:23:44.572Z,99460.66
2022-11-04T00:28:47.965Z,99451.88
2022-11-04T00:33:50.457Z,99451.84
2022-11-04T00:38:52.376Z,99436.41
2022-11-04T00:43:55.949Z,99445.31
2022-11-04T00:48:57.777Z,99443.25
2022-11-04T00:53:59.640Z,99453.81
2022-11-04T00:59:02.934Z,99455.31
2022-11-04T01:04:04.874Z,99452.59
2022-11-04T01:09:10.933Z,99442.63
2022-11-04T01:14:14.066Z,99436.78
2022-11-04T01:19:15.917Z,99442.13
2022-11-04T01:24:17.773Z,99444.41
2022-11-04T01:29:20.916Z,99438.50
2022-11-04T01:34:22.680Z,99439.69
2022-11-04T01:39:24.524Z,99441.34
2022-11-04T01:44:50.314Z,99439.50
2022-11-04T01:49:53.876Z,99452.34
2022-11-04T01:54:56.649Z,99447.00
2022-11-04T02:00:01.562Z,99457.59
2022-11-04T02:05:13.477Z,99449.69
2022-11-04T02:10:15.254Z,99457.31
2022-11-04T02:15:20.964Z,99451.00
2022-11-04T02:20:38.069Z,99452.81
2022-11-04T02:26:06.643Z,99462.69
2022-11-04T02:31:11.520Z,99466.22
2022-11-04T02:36:16.742Z,99475.19
2022-11-04T02:41:24.419Z,99488.34
2022-11-04T02:46:31.283Z,99499.81
2022-11-04T02:51:35.339Z,99506.03
2022-11-04T02:56:38.707Z,99503.03
2022-11-04T03:01:42.367Z,99496.47
2022-11-04T03:06:44.858Z,99486.47
2022-11-04T03:11:48.296Z,99466.84
2022-11-04T03:16:52.703Z,99447.78
2022-11-04T03:21:55.581Z,99455.59
2022-11-04T03:26:59.558Z,99460.38
2022-11-04T03:32:06.954Z,99464.50
2022-11-04T03:37:08.728Z,99466.06
2022-11-04T03:42:20.553Z,99474.94
2022-11-04T03:47:25.116Z,99480.75
2022-11-04T03:52:26.893Z,99500.47
2022-11-04T03:57:42.291Z,99514.19
2022-11-04T04:02:56.020Z,99540.13
2022-11-04T04:08:03.049Z,99539.84
2022-11-04T04:13:07.847Z,99559.63
2022-11-04T04:18:12.798Z,99541.81
2022-11-04T04:23:35.054Z,99554.66
2022-11-04T04:28:36.945Z,99574.88
2022-11-04T04:33:40.137Z,99572.44
2022-11-04T04:39:00.354Z,99585.69
2022-11-04T04:44:20.723Z,99603.53
2022-11-04T04:49:23.867Z,99588.06
2022-11-04T04:54:25.740Z,99596.75
2022-11-04T04:59:27.510Z,99599.13
2022-11-04T05:04:30.704Z,99616.06
2022-11-04T05:09:32.456Z,99604.50
2022-11-04T05:14:34.287Z,99617.53
2022-11-04T05:19:37.444Z,99627.31
2022-11-04T05:24:39.192Z,99635.84
2022-11-04T05:29:41.084Z,99648.00
2022-11-04T05:34:44.198Z,99642.91
2022-11-04T05:39:45.953Z,99642.72
2022-11-04T05:44:47.722Z,99645.97
2022-11-04T05:49:50.836Z,99652.06
2022-11-04T05:54:52.618Z,99665.56
2022-11-04T05:59:54.385Z,99668.72
2022-11-04T06:04:57.634Z,99703.50
2022-11-04T06:10:00.283Z,99697.41
2022-11-04T06:15:02.175Z,99703.09
2022-11-04T06:20:06.605Z,99704.00
2022-11-04T06:25:09.351Z,99719.19
2022-11-04T06:30:12.975Z,99735.09
2022-11-04T06:35:16.331Z,99759.44
2022-11-04T06:40:18.111Z,99732.56
2022-11-04T06:45:19.927Z,99729.56
2022-11-04T06:50:23.108Z,99744.25
2022-11-04T06:55:24.887Z,99766.19
2022-11-04T07:00:26.718Z,99770.78
2022-11-04T07:05:29.932Z,99778.16
2022-11-04T07:10:31.850Z,99790.78
2022-11-04T07:15:33.625Z,99784.31
2022-11-04T07:20:37.483Z,99778.53
2022-11-04T07:25:39.237Z,99781.81
2022-11-04T07:30:41.059Z,99777.16
2022-11-04T07:35:45.657Z,99762.06
2022-11-04T07:40:47.461Z,99763.19
2022-11-04T07:45:59.137Z,99776.59
2022-11-04T07:51:02.568Z,99788.97
2022-11-04T07:56:04.754Z,99806.41
2022-11-04T08:01:08.214Z,99816.88
2022-11-04T08:06:12.594Z,99826.44
2022-11-04T08:11:17.668Z,99829.53
2022-11-04T08:16:20.696Z,99831.00
2022-11-04T08:21:23.812Z,99846.56
2022-11-04T08:26:25.657Z,99838.53
2022-11-04T08:31:30.926Z,99849.97
2022-11-04T08:36:36.603Z,99852.38
2022-11-04T08:41:38.980Z,99846.56
2022-11-04T08:46:41.163Z,99852.00
2022-11-04T08:51:45.265Z,99847.41
2022-11-04T08:56:47.102Z,99857.63
2022-11-04T09:01:48.971Z,99848.97
2022-11-04T09:06:52.340Z,99862.38
2022-11-04T09:11:54.220Z,99867.13
2022-11-04T09:16:56.025Z,99874.09
2022-11-04T09:21:59.143Z,99873.75
2022-11-04T09:27:00.905Z,99869.94
2022-11-04T09:32:02.889Z,99844.56
2022-11-04T09:37:06.008Z,99846.34
2022-11-04T09:42:19.800Z,99839.56
2022-11-04T09:47:22.352Z,99835.47
2022-11-04T09:52:26.358Z,99842.78
2022-11-04T09:57:28.398Z,99842.91
2022-11-04T10:02:45.315Z,99837.28
2022-11-04T10:07:57.727Z,99816.94
2022-11-04T10:13:06.520Z,99816.31
2022-11-04T10:18:16.451Z,99812.22
2022-11-04T10:23:22.259Z,99830.56
2022-11-04T10:28:26.247Z,99839.53
2022-11-04T10:33:29.192Z,99864.31
2022-11-04T10:38:35.739Z,99862.72
2022-11-04T10:43:37.948Z,99879.69
2022-11-04T10:48:43.324Z,99893.41
2022-11-04T10:53:46.465Z,99901.09
2022-11-04T10:58:48.438Z,99903.13
2022-11-04T11:03:50.195Z,99894.09
2022-11-04T11:08:54.326Z,99892.94
2022-11-04T11:13:56.097Z,99881.75
2022-11-04T11:19:08.690Z,99881.22
2022-11-04T11:24:17.004Z,99892.16
2022-11-04T11:29:21.814Z,99887.28
2022-11-04T11:34:26.518Z,99897.63
2022-11-04T11:39:30.248Z,99905.91
2022-11-04T11:44:34.823Z,99901.59
2022-11-04T11:49:37.980Z,99904.06
2022-11-04T11:54:42.009Z,99915.56
2022-11-04T12:10:56.904Z,99908.31
2022-11-04T12:16:13.931Z,99910.22
2022-11-04T12:21:16.922Z,99905.75
2022-11-04T12:26:26.844Z,99916.28
2022-11-04T12:31:34.241Z,99920.44
2022-11-04T12:36:55.865Z,99936.00
2022-11-04T12:42:22.465Z,99931.44
2022-11-04T12:47:33.096Z,99941.81
2022-11-04T12:52:42.081Z,99954.09
2022-11-04T12:57:47.777Z,99952.59
2022-11-04T13:02:51.238Z,99954.16
2022-11-04T13:07:55.052Z,99958.03
2022-11-04T13:13:00.816Z,99959.34
2022-11-04T13:18:04.937Z,99964.72
2022-11-04T13:23:08.546Z,99967.31
2022-11-04T13:28:13.026Z,99972.47
2022-11-04T13:33:17.524Z,99972.78
2022-11-04T13:38:20.184Z,99970.38
2022-11-04T13:43:40.836Z,99982.66
2022-11-04T13:48:51.310Z,99980.00
2022-11-04T13:53:54.836Z,99977.59
2022-11-04T13:58:59.908Z,99980.16
2022-11-04T14:04:24.819Z,99986.91
2022-11-04T14:09:49.346Z,99999.50
2022-11-04T14:14:53.440Z,100004.88
2022-11-04T14:19:57.949Z,100011.34
2022-11-04T14:25:00.695Z,100021.97
2022-11-04T14:30:04.492Z,100027.75
2022-11-04T14:35:07.050Z,100030.31
2022-11-04T14:40:25.046Z,100036.38
2022-11-04T14:45:30.765Z,100040.81
2022-11-04T14:50:32.657Z,100049.56
2022-11-04T14:57:14.985Z,100066.78
2022-11-04T15:02:18.943Z,100065.22
2022-11-04T15:07:35.170Z,100065.78
2022-11-04T15:12:54.530Z,100072.78
2022-11-04T15:17:58.330Z,100077.34
2022-11-04T15:23:01.076Z,100080.34
2022-11-04T15:28:04.491Z,100086.88
2022-11-04T15:33:14.903Z,100093.00
2022-11-04T15:38:16.751Z,100092.91
2022-11-04T15:43:19.935Z,100102.69
2022-11-04T15:48:27.314Z,100104.13
2022-11-04T15:53:29.094Z,100118.69
2022-11-04T15:58:32.347Z,100114.66
2022-11-04T16:03:34.169Z,100114.56
2022-11-04T16:08:36.070Z,100118.56
2022-11-04T16:13:39.290Z,100120.16
2022-11-04T16:18:42.620Z,100118.84
2022-11-04T16:23:45.531Z,100128.94
2022-11-04T16:28:48.891Z,100133.94
2022-11-04T16:33:50.690Z,100140.50
2022-11-04T16:38:53.837Z,100144.88
2022-11-04T16:43:57.262Z,100152.63
2022-11-04T16:48:59.069Z,100151.25
2022-11-04T16:54:00.898Z,100166.09
2022-11-04T16:59:04.081Z,100167.41
2022-11-04T17:04:06.888Z,100169.28
2022-11-04T17:09:18.256Z,100173.69
2022-11-04T17:14:21.440Z,100187.06
2022-11-04T17:19:23.255Z,100192.44
2022-11-04T17:24:24.996Z,100196.75
2022-11-04T17:29:29.848Z,100202.91
2022-11-04T17:34:31.633Z,100209.38
2022-11-04T17:39:33.669Z,100211.78
2022-11-04T17:44:36.854Z,100224.69
2022-11-04T17:49:39.119Z,100216.78
2022-11-04T17:54:40.865Z,100220.53
2022-11-04T17:59:44.078Z,100223.94
2022-11-04T18:04:45.834Z,100230.22
2022-11-04T18:09:47.681Z,100218.88
2022-11-04T18:14:50.801Z,100233.41
2022-11-04T18:19:52.567Z,100233.25
2022-11-04T18:24:54.599Z,100240.22
2022-11-04T18:29:57.795Z,100240.22
2022-11-04T18:34:59.607Z,100244.97
2022-11-04T18:40:01.379Z,100246.84
2022-11-04T18:45:05.200Z,100249.38
2022-11-04T18:50:07.685Z,100264.94
2022-11-04T18:55:09.944Z,100246.88
2022-11-04T19:00:17.228Z,100258.72
2022-11-04T19:05:19.778Z,100262.63
2022-11-04T19:10:22.241Z,100268.75
2022-11-04T19:15:25.480Z,100274.66
2022-11-04T19:20:28.058Z,100277.88
2022-11-04T19:25:30.075Z,100290.31
2022-11-04T19:30:34.815Z,100302.00
2022-11-04T19:35:36.838Z,100301.38
2022-11-04T19:40:38.765Z,100310.06
2022-11-04T19:45:42.521Z,100307.13
2022-11-04T19:50:45.856Z,100314.25
2022-11-04T19:55:49.064Z,100318.41
2022-11-04T20:00:53.204Z,100317.81
2022-11-04T20:05:55.135Z,100334.97
2022-11-04T20:10:59.032Z,100335.28
2022-11-04T20:16:03.127Z,100333.72
2022-11-04T20:21:05.402Z,100344.53
2022-11-04T20:26:08.999Z,100353.88
2022-11-04T20:31:12.917Z,100367.28
2022-11-04T20:36:15.776Z,100366.22
2022-11-04T20:41:20.524Z,100369.81
2022-11-04T20:46:24.657Z,100384.66
2022-11-04T20:51:30.272Z,100383.16
2022-11-04T20:56:32.773Z,100390.28
2022-11-04T21:01:37.460Z,100392.44
2022-11-04T21:06:39.496Z,100401.75
2022-11-04T21:11:41.555Z,100397.44
2022-11-04T21:16:44.786Z,100394.97
2022-11-04T21:21:47.124Z,100402.00
2022-11-04T21:26:49.125Z,100416.06
2022-11-04T21:31:52.367Z,100419.53
2022-11-04T21:36:54.146Z,100428.22
2022-11-04T21:41:55.879Z,100429.88
2022-11-04T21:46:59.021Z,100425.56
2022-11-04T21:52:00.890Z,100425.22
2022-11-04T21:57:02.745Z,100442.28
2022-11-04T22:02:05.916Z,100437.72
2022-11-04T22:07:07.746Z,100447.50
2022-11-04T22:12:09.545Z,100458.84
2022-11-04T22:17:12.828Z,100451.91
2022-11-04T22:22:14.796Z,100459.75
2022-11-04T22:27:16.536Z,100463.25
2022-11-04T22:32:19.844Z,100464.19
2022-11-04T22:37:21.867Z,100477.25
2022-11-04T22:42:23.763Z,100479.00
2022-11-04T22:47:27.784Z,100490.34
2022-11-04T22:52:29.585Z,100484.25
2022-11-04T22:57:31.342Z,100486.81
2022-11-04T23:02:37.118Z,100493.75
2022-11-04T23:07:39.319Z,100498.09
2022-11-04T23:12:59.716Z,100498.13
2022-11-04T23:18:21.375Z,100505.13
2022-11-04T23:23:41.668Z,100511.19
2022-11-04T23:29:01.930Z,100505.09
2022-11-04T23:34:23.453Z,100509.47
2022-11-04T23:39:25.334Z,100520.81
2022-11-04T23:44:45.536Z,100521.69
2022-11-04T23:50:07.157Z,100526.91
2022-11-04T23:55:35.453Z,100528.69
